Polock, Belarus

8:12 AM MSK on December 29, 2014 (GMT +0300)
Vitebsk | Change Station
CLOSE
Current Station
Airport
Location: Viciebsk,
Elevation: 577 ft
Nearby Weather Stations

Elev 577 ft 55.17 °N, 30.22 °E | Updated 12 minutes ago

Light Snow
Light Snow Mist
9 °F
Feels Like 0 °F
N
4
Wind Variable Wind from NNE

Today
High -- | Low -- °F
--% Chance of Precip.
Yesterday
High -- | Low -- °F
Precip. -- in
9:33 AM 4:40 PM
First Quarter, 55% visible
Pressure 30.01 in
Visibility 2.8 miles
Clouds Overcast 400 ft
Windchill 0 °F
Dew Point 9 °F
Humidity 100%
Rainfall 0.00 in
Snow Depth Not available.
UV 0 out of 12
Pollen Not available.
Air Quality Not available.
Flu Activity Not available.
SPECI UMII 290500Z 03002MPS 4500 -SN BR OVC004 M13/M13 Q1016 TEMPO 2000 BKN003 RMK QBB120

More Conditions Fewer Conditions

Pressure 30.01 in
Visibility 2.8 miles
Clouds Overcast 400 ft
Windchill 0 °F
Dew Point 9 °F
Humidity 100%
Rainfall 0.00 in
Snow Depth Not available.
UV 0 out of 12
Pollen Not available.
Air Quality Not available.
Flu Activity Not available.
SPECI UMII 290500Z 03002MPS 4500 -SN BR OVC004 M13/M13 Q1016 TEMPO 2000 BKN003 RMK QBB120

More Conditions Fewer Conditions

10-Day Weather Forecast

Almanac

Astronomy

Dec. 29, 2014 Rise Set
Actual Time
Civil Twilight
Nautical Twilight
Astronomical Twilight
Moon
Length of Visible Light
Length of Day
Tomorrow will be .
, % of the Moon is Illuminated

Today's Extremes

Country Highs Country Lows

Community

WunderPhotos

Upload Photos

1,781,530 photos uploaded!

WunderBlogs® & News

Nearby

Air Quality

  Air Quality AQ Index Pollutant
Not available.

Snow Depth

Station Depth Elevation

Earthquake Activity

City Distance Mag. Time & Date
Minimum magnitude displayed is 2.5.

Coastal Water Temperatures

Place Temperature

Nearby Weather Stations